PWSweather.com
Personal Weather Stations
Station Observations

SaroSE

Lat: 57.5222, Lon: 11.947

Elevation: 35

Station Type: Davis VP2

http://www.lokaltvader.se/

High Low Average
Temperature 59.3°F15.2°C 52.7°F11.5°C 55.4°F13.0°C
Dew Point 52.5°F11.4°C 49.0°F9.4°C 50.2°F10.1°C
Winds 19.6 mph 31.5 kmh Calm Calm 6.0 mph E9.7 kmh E
Wind Gusts 25.3 mph40.7 kmh 2.3 mph3.7 kmh 11.0 mph17.7 kmh
Humidity 88% 76% 83%
Pressure 29.84 in1010.5 mb 29.80 in1009.1 mb -
Precipitation 0.00 in0.0 mm - -
Hour Temp Dew Point Humidity Winds Wind Gusts Pressure Precip Precip Rate Daily Precip Total
12:00 AM 54.0°F12.2°C 49.9°F9.9°C 86% 3.5 mph E5.6 kmh E 9.2 mph14.8 kmh 29.84 in1010.5 mb - 0.00 in0.0 mm 0.00 in0.0 mm
12:15 AM 54.0°F12.2°C 49.9°F9.9°C 86% 6.9 mph E11.1 kmh E 12.7 mph20.4 kmh 29.83 in1010.2 mb - 0.00 in0.0 mm 0.00 in0.0 mm
12:30 AM 54.0°F12.2°C 49.9°F9.9°C 86% 6.9 mph ENE11.1 kmh ENE 12.7 mph20.4 kmh 29.83 in1010.2 mb - 0.00 in0.0 mm 0.00 in0.0 mm
12:45 AM 54.0°F12.2°C 49.9°F9.9°C 86% 4.6 mph E7.4 kmh E 10.4 mph16.7 kmh 29.83 in1010.2 mb - 0.00 in0.0 mm 0.00 in0.0 mm
01:00 AM 53.9°F12.2°C 49.8°F9.9°C 86% 2.3 mph E3.7 kmh E 12.7 mph20.4 kmh 29.83 in1010.2 mb - 0.00 in0.0 mm 0.00 in0.0 mm
01:15 AM 53.9°F12.2°C 49.8°F9.9°C 86% 4.6 mph E7.4 kmh E 6.9 mph11.1 kmh 29.82 in1009.8 mb - 0.00 in0.0 mm 0.00 in0.0 mm
01:30 AM 53.9°F12.2°C 50.1°F10.1°C 87% 2.3 mph E3.7 kmh E 3.5 mph5.6 kmh 29.82 in1009.8 mb - 0.00 in0.0 mm 0.00 in0.0 mm
01:45 AM 53.9°F12.2°C 50.1°F10.1°C 87% 1.2 mph E1.9 kmh E 8.1 mph13.0 kmh 29.82 in1009.8 mb - 0.00 in0.0 mm 0.00 in0.0 mm
02:00 AM 53.8°F12.1°C 50.0°F10.0°C 87% 2.3 mph E3.7 kmh E 3.5 mph5.6 kmh 29.82 in1009.8 mb - 0.00 in0.0 mm 0.00 in0.0 mm
02:15 AM 53.7°F12.1°C 49.9°F9.9°C 87% Calm Calm 2.3 mph3.7 kmh 29.82 in1009.8 mb - 0.00 in0.0 mm 0.00 in0.0 mm
02:30 AM 53.5°F11.9°C 49.8°F9.9°C 87% 1.2 mph E1.9 kmh E 4.6 mph7.4 kmh 29.81 in1009.5 mb - 0.00 in0.0 mm 0.00 in0.0 mm
02:45 AM 53.4°F11.9°C 49.9°F9.9°C 88% 2.3 mph E3.7 kmh E 5.8 mph9.3 kmh 29.81 in1009.5 mb - 0.00 in0.0 mm 0.00 in0.0 mm
03:00 AM 53.3°F11.8°C 49.8°F9.9°C 88% 3.5 mph E5.6 kmh E 4.6 mph7.4 kmh 29.81 in1009.5 mb - 0.00 in0.0 mm 0.00 in0.0 mm
03:15 AM 53.3°F11.8°C 49.8°F9.9°C 88% 4.6 mph E7.4 kmh E 8.1 mph13.0 kmh 29.81 in1009.5 mb - 0.00 in0.0 mm 0.00 in0.0 mm
03:30 AM 53.2°F11.8°C 49.5°F9.7°C 87% 1.2 mph ENE1.9 kmh ENE 3.5 mph5.6 kmh 29.81 in1009.5 mb - 0.00 in0.0 mm 0.00 in0.0 mm
03:45 AM 53.2°F11.8°C 49.4°F9.7°C 87% 3.5 mph ENE5.6 kmh ENE 10.4 mph16.7 kmh 29.80 in1009.1 mb - 0.00 in0.0 mm 0.00 in0.0 mm
04:00 AM 53.1°F11.7°C 49.3°F9.6°C 87% 5.8 mph ENE9.3 kmh ENE 11.5 mph18.5 kmh 29.80 in1009.1 mb - 0.00 in0.0 mm 0.00 in0.0 mm
04:15 AM 53.1°F11.7°C 49.3°F9.6°C 87% 5.8 mph E9.3 kmh E 11.5 mph18.5 kmh 29.80 in1009.1 mb - 0.00 in0.0 mm 0.00 in0.0 mm
04:30 AM 53.0°F11.7°C 49.2°F9.6°C 87% 2.3 mph ENE3.7 kmh ENE 11.5 mph18.5 kmh 29.81 in1009.5 mb - 0.00 in0.0 mm 0.00 in0.0 mm
04:45 AM 53.0°F11.7°C 49.2°F9.6°C 87% 4.6 mph ENE7.4 kmh ENE 5.8 mph9.3 kmh 29.80 in1009.1 mb - 0.00 in0.0 mm 0.00 in0.0 mm
05:00 AM 52.9°F11.6°C 49.1°F9.5°C 87% 2.3 mph ENE3.7 kmh ENE 4.6 mph7.4 kmh 29.80 in1009.1 mb - 0.00 in0.0 mm 0.00 in0.0 mm
05:15 AM 52.7°F11.5°C 49.0°F9.4°C 87% 3.5 mph ENE5.6 kmh ENE 13.8 mph22.2 kmh 29.80 in1009.1 mb - 0.00 in0.0 mm 0.00 in0.0 mm
05:30 AM 52.8°F11.6°C 49.0°F9.4°C 87% 2.3 mph E3.7 kmh E 9.2 mph14.8 kmh 29.80 in1009.1 mb - 0.00 in0.0 mm 0.00 in0.0 mm
05:45 AM 52.8°F11.6°C 49.0°F9.4°C 87% 2.3 mph E3.7 kmh E 11.5 mph18.5 kmh 29.80 in1009.1 mb - 0.00 in0.0 mm 0.00 in0.0 mm
06:00 AM 52.8°F11.6°C 49.0°F9.4°C 87% 9.2 mph E14.8 kmh E 18.4 mph29.6 kmh 29.80 in1009.1 mb - 0.00 in0.0 mm 0.00 in0.0 mm
06:15 AM 52.9°F11.6°C 49.1°F9.5°C 87% 8.1 mph E13.0 kmh E 11.5 mph18.5 kmh 29.80 in1009.1 mb - 0.00 in0.0 mm 0.00 in0.0 mm
06:30 AM 53.0°F11.7°C 49.2°F9.6°C 87% 6.9 mph E11.1 kmh E 17.3 mph27.8 kmh 29.80 in1009.1 mb - 0.00 in0.0 mm 0.00 in0.0 mm
06:45 AM 53.0°F11.7°C 49.3°F9.6°C 87% 10.4 mph E16.7 kmh E 18.4 mph29.6 kmh 29.80 in1009.1 mb - 0.00 in0.0 mm 0.00 in0.0 mm
07:00 AM 53.1°F11.7°C 49.3°F9.6°C 87% 2.3 mph E3.7 kmh E 10.4 mph16.7 kmh 29.80 in1009.1 mb - 0.00 in0.0 mm 0.00 in0.0 mm
07:15 AM 53.1°F11.7°C 49.0°F9.4°C 86% 9.2 mph E14.8 kmh E 11.5 mph18.5 kmh 29.80 in1009.1 mb - 0.00 in0.0 mm 0.00 in0.0 mm
07:30 AM 53.2°F11.8°C 49.1°F9.5°C 86% 5.8 mph E9.3 kmh E 13.8 mph22.2 kmh 29.80 in1009.1 mb - 0.00 in0.0 mm 0.00 in0.0 mm
07:45 AM 53.4°F11.9°C 49.3°F9.6°C 86% 2.3 mph ENE3.7 kmh ENE 3.5 mph5.6 kmh 29.80 in1009.1 mb - 0.00 in0.0 mm 0.00 in0.0 mm
08:00 AM 53.5°F11.9°C 49.1°F9.5°C 85% 1.2 mph NE1.9 kmh NE 11.5 mph18.5 kmh 29.80 in1009.1 mb - 0.00 in0.0 mm 0.00 in0.0 mm
08:15 AM 53.7°F12.1°C 49.3°F9.6°C 85% 5.8 mph E9.3 kmh E 11.5 mph18.5 kmh 29.80 in1009.1 mb - 0.00 in0.0 mm 0.00 in0.0 mm
08:30 AM 54.0°F12.2°C 49.3°F9.6°C 84% 3.5 mph E5.6 kmh E 19.6 mph31.5 kmh 29.81 in1009.5 mb - 0.00 in0.0 mm 0.00 in0.0 mm
08:45 AM 54.4°F12.4°C 49.7°F9.8°C 84% 3.5 mph ENE5.6 kmh ENE 15.0 mph24.1 kmh 29.81 in1009.5 mb - 0.00 in0.0 mm 0.00 in0.0 mm
09:00 AM 54.7°F12.6°C 49.6°F9.8°C 83% 3.5 mph E5.6 kmh E 10.4 mph16.7 kmh 29.81 in1009.5 mb - 0.00 in0.0 mm 0.00 in0.0 mm
09:15 AM 54.9°F12.7°C 49.5°F9.7°C 82% 6.9 mph E11.1 kmh E 18.4 mph29.6 kmh 29.81 in1009.5 mb - 0.00 in0.0 mm 0.00 in0.0 mm
09:30 AM 55.3°F12.9°C 49.6°F9.8°C 81% 6.9 mph ENE11.1 kmh ENE 21.9 mph35.2 kmh 29.81 in1009.5 mb - 0.00 in0.0 mm 0.00 in0.0 mm
09:45 AM 55.7°F13.2°C 49.6°F9.8°C 80% 8.1 mph E13.0 kmh E 18.4 mph29.6 kmh 29.81 in1009.5 mb - 0.00 in0.0 mm 0.00 in0.0 mm
10:00 AM 56.0°F13.3°C 49.6°F9.8°C 79% 10.4 mph E16.7 kmh E 13.8 mph22.2 kmh 29.81 in1009.5 mb - 0.00 in0.0 mm 0.00 in0.0 mm
10:15 AM 56.9°F13.8°C 49.8°F9.9°C 77% 4.6 mph E7.4 kmh E 6.9 mph11.1 kmh 29.81 in1009.5 mb - 0.00 in0.0 mm 0.00 in0.0 mm
10:30 AM 57.1°F13.9°C 49.6°F9.8°C 76% 19.6 mph E31.5 kmh E 25.3 mph40.7 kmh 29.81 in1009.5 mb - 0.00 in0.0 mm 0.00 in0.0 mm
10:45 AM 57.2°F14.0°C 50.1°F10.1°C 77% 6.9 mph E11.1 kmh E 13.8 mph22.2 kmh 29.81 in1009.5 mb - 0.00 in0.0 mm 0.00 in0.0 mm
11:00 AM 57.7°F14.3°C 50.5°F10.3°C 77% 13.8 mph E22.2 kmh E 16.1 mph25.9 kmh 29.81 in1009.5 mb - 0.00 in0.0 mm 0.00 in0.0 mm
11:15 AM 57.5°F14.2°C 50.7°F10.4°C 78% 12.7 mph ESE20.4 kmh ESE 19.6 mph31.5 kmh 29.81 in1009.5 mb - 0.00 in0.0 mm 0.00 in0.0 mm
11:30 AM 57.8°F14.3°C 51.0°F10.6°C 78% 9.2 mph E14.8 kmh E 13.8 mph22.2 kmh 29.81 in1009.5 mb - 0.00 in0.0 mm 0.00 in0.0 mm
11:45 AM 58.0°F14.4°C 51.2°F10.7°C 78% 8.1 mph ESE13.0 kmh ESE 15.0 mph24.1 kmh 29.81 in1009.5 mb - 0.00 in0.0 mm 0.00 in0.0 mm
12:00 PM 58.6°F14.8°C 51.7°F10.9°C 78% 11.5 mph E18.5 kmh E 17.3 mph27.8 kmh 29.81 in1009.5 mb - 0.00 in0.0 mm 0.00 in0.0 mm
12:15 PM 59.1°F15.1°C 51.5°F10.8°C 76% 6.9 mph E11.1 kmh E 12.7 mph20.4 kmh 29.81 in1009.5 mb - 0.00 in0.0 mm 0.00 in0.0 mm
12:30 PM 58.7°F14.8°C 51.9°F11.1°C 78% 9.2 mph E14.8 kmh E 11.5 mph18.5 kmh 29.81 in1009.5 mb - 0.00 in0.0 mm 0.00 in0.0 mm
12:45 PM 58.6°F14.8°C 51.8°F11.0°C 78% 8.1 mph E13.0 kmh E 15.0 mph24.1 kmh 29.80 in1009.1 mb - 0.00 in0.0 mm 0.00 in0.0 mm
01:00 PM 58.6°F14.8°C 51.8°F11.0°C 78% 9.2 mph E14.8 kmh E 11.5 mph18.5 kmh 29.80 in1009.1 mb - 0.00 in0.0 mm 0.00 in0.0 mm
01:15 PM 58.7°F14.8°C 51.9°F11.1°C 78% 5.8 mph E9.3 kmh E 11.5 mph18.5 kmh 29.80 in1009.1 mb - 0.00 in0.0 mm 0.00 in0.0 mm
01:30 PM 58.8°F14.9°C 52.0°F11.1°C 78% 4.6 mph E7.4 kmh E 13.8 mph22.2 kmh 29.80 in1009.1 mb - 0.00 in0.0 mm 0.00 in0.0 mm
01:45 PM 59.3°F15.2°C 52.5°F11.4°C 78% 12.7 mph E20.4 kmh E 16.1 mph25.9 kmh 29.80 in1009.1 mb - 0.00 in0.0 mm 0.00 in0.0 mm
02:00 PM 58.7°F14.8°C 51.9°F11.1°C 78% 6.9 mph E11.1 kmh E 11.5 mph18.5 kmh 29.81 in1009.5 mb - 0.00 in0.0 mm 0.00 in0.0 mm
02:15 PM 58.4°F14.7°C 51.9°F11.1°C 79% 9.2 mph E14.8 kmh E 19.6 mph31.5 kmh 29.81 in1009.5 mb - 0.00 in0.0 mm 0.00 in0.0 mm
02:30 PM 58.7°F14.8°C 52.2°F11.2°C 79% 10.4 mph E16.7 kmh E 17.3 mph27.8 kmh 29.80 in1009.1 mb - 0.00 in0.0 mm 0.00 in0.0 mm
02:45 PM 58.5°F14.7°C 51.7°F10.9°C 78% 9.2 mph E14.8 kmh E 19.6 mph31.5 kmh 29.80 in1009.1 mb - 0.00 in0.0 mm 0.00 in0.0 mm
03:00 PM 58.4°F14.7°C 51.9°F11.1°C 79% 8.1 mph ENE13.0 kmh ENE 9.2 mph14.8 kmh 29.80 in1009.1 mb - 0.00 in0.0 mm 0.00 in0.0 mm
03:15 PM 58.5°F14.7°C 52.0°F11.1°C 79% 4.6 mph ENE7.4 kmh ENE 11.5 mph18.5 kmh 29.80 in1009.1 mb - 0.00 in0.0 mm 0.00 in0.0 mm
03:30 PM 58.1°F14.5°C 51.7°F10.9°C 79% 6.9 mph E11.1 kmh E 11.5 mph18.5 kmh 29.80 in1009.1 mb - 0.00 in0.0 mm 0.00 in0.0 mm
03:45 PM 58.0°F14.4°C 51.5°F10.8°C 79% 10.4 mph E16.7 kmh E 15.0 mph24.1 kmh 29.80 in1009.1 mb - 0.00 in0.0 mm 0.00 in0.0 mm
04:00 PM 57.8°F14.3°C 51.4°F10.8°C 79% 11.5 mph E18.5 kmh E 11.5 mph18.5 kmh 29.80 in1009.1 mb - 0.00 in0.0 mm 0.00 in0.0 mm
04:15 PM 57.7°F14.3°C 51.2°F10.7°C 79% 5.8 mph E9.3 kmh E 13.8 mph22.2 kmh 29.80 in1009.1 mb - 0.00 in0.0 mm 0.00 in0.0 mm
04:30 PM 57.6°F14.2°C 51.1°F10.6°C 79% 2.3 mph ENE3.7 kmh ENE 8.1 mph13.0 kmh 29.80 in1009.1 mb - 0.00 in0.0 mm 0.00 in0.0 mm
04:45 PM 57.4°F14.1°C 51.3°F10.7°C 80% 2.3 mph ENE3.7 kmh ENE 4.6 mph7.4 kmh 29.81 in1009.5 mb - 0.00 in0.0 mm 0.00 in0.0 mm
05:00 PM 57.2°F14.0°C 51.1°F10.6°C 80% 2.3 mph NE3.7 kmh NE 6.9 mph11.1 kmh 29.81 in1009.5 mb - 0.00 in0.0 mm 0.00 in0.0 mm
05:15 PM 56.9°F13.8°C 50.8°F10.4°C 80% 3.5 mph NE5.6 kmh NE 12.7 mph20.4 kmh 29.80 in1009.1 mb - 0.00 in0.0 mm 0.00 in0.0 mm
05:30 PM 56.7°F13.7°C 50.9°F10.5°C 81% 2.3 mph NE3.7 kmh NE 4.6 mph7.4 kmh 29.80 in1009.1 mb - 0.00 in0.0 mm 0.00 in0.0 mm
05:45 PM 56.6°F13.7°C 50.8°F10.4°C 81% 3.5 mph NE5.6 kmh NE 5.8 mph9.3 kmh 29.80 in1009.1 mb - 0.00 in0.0 mm 0.00 in0.0 mm
06:00 PM 56.3°F13.5°C 50.5°F10.3°C 81% 2.3 mph NE3.7 kmh NE 10.4 mph16.7 kmh 29.81 in1009.5 mb - 0.00 in0.0 mm 0.00 in0.0 mm
06:15 PM 56.2°F13.4°C 50.4°F10.2°C 81% 1.2 mph ENE1.9 kmh ENE 3.5 mph5.6 kmh 29.81 in1009.5 mb - 0.00 in0.0 mm 0.00 in0.0 mm
06:30 PM 56.1°F13.4°C 50.3°F10.2°C 81% 3.5 mph ENE5.6 kmh ENE 9.2 mph14.8 kmh 29.82 in1009.8 mb - 0.00 in0.0 mm 0.00 in0.0 mm
06:45 PM 56.0°F13.3°C 50.6°F10.3°C 82% 5.8 mph NE9.3 kmh NE 11.5 mph18.5 kmh 29.82 in1009.8 mb - 0.00 in0.0 mm 0.00 in0.0 mm
07:00 PM 55.8°F13.2°C 50.4°F10.2°C 82% 2.3 mph NE3.7 kmh NE 11.5 mph18.5 kmh 29.82 in1009.8 mb - 0.00 in0.0 mm 0.00 in0.0 mm
07:15 PM 55.7°F13.2°C 50.3°F10.2°C 82% 5.8 mph NE9.3 kmh NE 11.5 mph18.5 kmh 29.82 in1009.8 mb - 0.00 in0.0 mm 0.00 in0.0 mm
07:30 PM 55.6°F13.1°C 49.9°F9.9°C 81% 6.9 mph ENE11.1 kmh ENE 11.5 mph18.5 kmh 29.82 in1009.8 mb - 0.00 in0.0 mm 0.00 in0.0 mm
07:45 PM 55.6°F13.1°C 49.8°F9.9°C 81% 4.6 mph E7.4 kmh E 8.1 mph13.0 kmh 29.82 in1009.8 mb - 0.00 in0.0 mm 0.00 in0.0 mm
08:00 PM 55.4°F13.0°C 49.7°F9.8°C 81% 3.5 mph ENE5.6 kmh ENE 11.5 mph18.5 kmh 29.82 in1009.8 mb - 0.00 in0.0 mm 0.00 in0.0 mm
08:15 PM 55.3°F12.9°C 49.9°F9.9°C 82% 5.8 mph ENE9.3 kmh ENE 10.4 mph16.7 kmh 29.82 in1009.8 mb - 0.00 in0.0 mm 0.00 in0.0 mm
08:30 PM 55.2°F12.9°C 49.8°F9.9°C 82% 6.9 mph ENE11.1 kmh ENE 11.5 mph18.5 kmh 29.83 in1010.2 mb - 0.00 in0.0 mm 0.00 in0.0 mm
08:45 PM 55.2°F12.9°C 49.8°F9.9°C 82% 1.2 mph E1.9 kmh E 4.6 mph7.4 kmh 29.83 in1010.2 mb - 0.00 in0.0 mm 0.00 in0.0 mm
09:00 PM 54.9°F12.7°C 49.5°F9.7°C 82% 3.5 mph ENE5.6 kmh ENE 3.5 mph5.6 kmh 29.83 in1010.2 mb - 0.00 in0.0 mm 0.00 in0.0 mm
09:15 PM 54.7°F12.6°C 49.3°F9.6°C 82% 2.3 mph ENE3.7 kmh ENE 9.2 mph14.8 kmh 29.83 in1010.2 mb - 0.00 in0.0 mm 0.00 in0.0 mm
09:30 PM 54.5°F12.5°C 49.5°F9.7°C 83% 2.3 mph ENE3.7 kmh ENE 3.5 mph5.6 kmh 29.83 in1010.2 mb - 0.00 in0.0 mm 0.00 in0.0 mm
09:45 PM 54.4°F12.4°C 49.3°F9.6°C 83% 4.6 mph E7.4 kmh E 6.9 mph11.1 kmh 29.83 in1010.2 mb - 0.00 in0.0 mm 0.00 in0.0 mm
10:00 PM 54.2°F12.3°C 49.5°F9.7°C 84% 4.6 mph E7.4 kmh E 9.2 mph14.8 kmh 29.83 in1010.2 mb - 0.00 in0.0 mm 0.00 in0.0 mm
10:15 PM 54.2°F12.3°C 49.5°F9.7°C 84% 8.1 mph E13.0 kmh E 13.8 mph22.2 kmh 29.83 in1010.2 mb - 0.00 in0.0 mm 0.00 in0.0 mm
10:30 PM 54.2°F12.3°C 49.5°F9.7°C 84% 5.8 mph E9.3 kmh E 9.2 mph14.8 kmh 29.83 in1010.2 mb - 0.00 in0.0 mm 0.00 in0.0 mm
10:45 PM 54.2°F12.3°C 49.5°F9.7°C 84% 6.9 mph E11.1 kmh E 9.2 mph14.8 kmh 29.83 in1010.2 mb - 0.00 in0.0 mm 0.00 in0.0 mm
11:00 PM 54.1°F12.3°C 49.4°F9.7°C 84% 4.6 mph E7.4 kmh E 16.1 mph25.9 kmh 29.83 in1010.2 mb - 0.00 in0.0 mm 0.00 in0.0 mm
11:15 PM 54.0°F12.2°C 49.3°F9.6°C 84% 6.9 mph E11.1 kmh E 13.8 mph22.2 kmh 29.83 in1010.2 mb - 0.00 in0.0 mm 0.00 in0.0 mm
11:30 PM 54.0°F12.2°C 49.6°F9.8°C 85% 9.2 mph E14.8 kmh E 13.8 mph22.2 kmh 29.83 in1010.2 mb - 0.00 in0.0 mm 0.00 in0.0 mm
11:45 PM 53.9°F12.2°C 49.5°F9.7°C 85% 5.8 mph E9.3 kmh E 8.1 mph13.0 kmh 29.83 in1010.2 mb - 0.00 in0.0 mm 0.00 in0.0 mm